sensor_id;sensor_type;location;lat;lon;timestamp;temperature;humidity
7518;DHT22;3800;48.922;9.444;2024-03-29T00:01:40;7.70;99.90
7518;DHT22;3800;48.922;9.444;2024-03-29T00:04:09;7.70;99.90
7518;DHT22;3800;48.922;9.444;2024-03-29T00:06:37;7.70;99.90
7518;DHT22;3800;48.922;9.444;2024-03-29T00:09:06;7.70;99.90
7518;DHT22;3800;48.922;9.444;2024-03-29T00:11:35;7.70;99.90
7518;DHT22;3800;48.922;9.444;2024-03-29T00:14:04;7.70;99.90
7518;DHT22;3800;48.922;9.444;2024-03-29T00:16:32;7.80;99.90
7518;DHT22;3800;48.922;9.444;2024-03-29T00:19:00;7.80;99.90
7518;DHT22;3800;48.922;9.444;2024-03-29T00:21:29;7.80;99.90
7518;DHT22;3800;48.922;9.444;2024-03-29T00:23:57;7.90;99.90
7518;DHT22;3800;48.922;9.444;2024-03-29T00:26:25;7.90;99.90
7518;DHT22;3800;48.922;9.444;2024-03-29T00:28:54;7.90;99.90
7518;DHT22;3800;48.922;9.444;2024-03-29T00:31:23;7.90;99.90
7518;DHT22;3800;48.922;9.444;2024-03-29T00:33:51;7.90;99.90
7518;DHT22;3800;48.922;9.444;2024-03-29T00:36:19;7.90;99.90
7518;DHT22;3800;48.922;9.444;2024-03-29T00:38:47;7.90;99.90
7518;DHT22;3800;48.922;9.444;2024-03-29T00:41:16;7.90;99.90
7518;DHT22;3800;48.922;9.444;2024-03-29T00:43:45;7.90;99.90
7518;DHT22;3800;48.922;9.444;2024-03-29T00:46:14;8.00;99.90
7518;DHT22;3800;48.922;9.444;2024-03-29T00:48:43;8.00;99.90
7518;DHT22;3800;48.922;9.444;2024-03-29T00:51:12;8.00;99.90
7518;DHT22;3800;48.922;9.444;2024-03-29T00:53:40;8.00;99.90
7518;DHT22;3800;48.922;9.444;2024-03-29T00:56:09;8.00;99.90
7518;DHT22;3800;48.922;9.444;2024-03-29T00:58:37;8.00;99.90
7518;DHT22;3800;48.922;9.444;2024-03-29T01:01:06;8.00;99.90
7518;DHT22;3800;48.922;9.444;2024-03-29T01:03:34;8.00;99.90
7518;DHT22;3800;48.922;9.444;2024-03-29T01:06:02;8.10;99.90
7518;DHT22;3800;48.922;9.444;2024-03-29T01:08:31;8.10;99.90
7518;DHT22;3800;48.922;9.444;2024-03-29T01:10:59;8.10;99.90
7518;DHT22;3800;48.922;9.444;2024-03-29T01:13:28;8.10;99.90
7518;DHT22;3800;48.922;9.444;2024-03-29T01:15:56;8.10;99.90
7518;DHT22;3800;48.922;9.444;2024-03-29T01:18:24;8.10;99.90
7518;DHT22;3800;48.922;9.444;2024-03-29T01:20:53;8.20;99.90
7518;DHT22;3800;48.922;9.444;2024-03-29T01:23:22;8.20;99.90
7518;DHT22;3800;48.922;9.444;2024-03-29T01:25:50;8.20;99.90
7518;DHT22;3800;48.922;9.444;2024-03-29T01:28:19;8.30;99.90
7518;DHT22;3800;48.922;9.444;2024-03-29T01:30:52;8.30;99.90
7518;DHT22;3800;48.922;9.444;2024-03-29T01:33:21;8.30;99.90
7518;DHT22;3800;48.922;9.444;2024-03-29T01:35:49;8.30;99.90
7518;DHT22;3800;48.922;9.444;2024-03-29T01:38:17;8.30;99.90
7518;DHT22;3800;48.922;9.444;2024-03-29T01:40:46;8.30;99.90
7518;DHT22;3800;48.922;9.444;2024-03-29T01:43:14;8.30;99.90
7518;DHT22;3800;48.922;9.444;2024-03-29T01:45:42;8.40;99.90
7518;DHT22;3800;48.922;9.444;2024-03-29T01:48:11;8.40;99.90
7518;DHT22;3800;48.922;9.444;2024-03-29T01:50:39;8.40;99.90
7518;DHT22;3800;48.922;9.444;2024-03-29T01:53:07;8.40;99.90
7518;DHT22;3800;48.922;9.444;2024-03-29T01:55:36;8.50;99.90
7518;DHT22;3800;48.922;9.444;2024-03-29T01:58:04;8.50;99.90
7518;DHT22;3800;48.922;9.444;2024-03-29T02:00:32;8.50;99.90
7518;DHT22;3800;48.922;9.444;2024-03-29T02:03:01;8.50;99.90
7518;DHT22;3800;48.922;9.444;2024-03-29T02:05:31;8.40;99.90
7518;DHT22;3800;48.922;9.444;2024-03-29T02:07:59;8.40;99.90
7518;DHT22;3800;48.922;9.444;2024-03-29T02:10:27;8.40;99.90
7518;DHT22;3800;48.922;9.444;2024-03-29T02:12:56;8.30;99.90
7518;DHT22;3800;48.922;9.444;2024-03-29T02:15:25;8.30;99.90
7518;DHT22;3800;48.922;9.444;2024-03-29T02:17:53;8.30;99.90
7518;DHT22;3800;48.922;9.444;2024-03-29T02:20:21;8.30;99.90
7518;DHT22;3800;48.922;9.444;2024-03-29T02:22:54;8.40;99.90
7518;DHT22;3800;48.922;9.444;2024-03-29T02:25:21;8.70;99.90
7518;DHT22;3800;48.922;9.444;2024-03-29T02:27:50;8.80;99.90
7518;DHT22;3800;48.922;9.444;2024-03-29T02:30:19;8.70;99.90
7518;DHT22;3800;48.922;9.444;2024-03-29T02:32:48;8.70;99.90
7518;DHT22;3800;48.922;9.444;2024-03-29T02:35:17;8.70;99.90
7518;DHT22;3800;48.922;9.444;2024-03-29T02:37:45;8.70;99.90
7518;DHT22;3800;48.922;9.444;2024-03-29T02:40:13;8.60;99.90
7518;DHT22;3800;48.922;9.444;2024-03-29T02:42:42;8.60;99.90
7518;DHT22;3800;48.922;9.444;2024-03-29T02:45:10;8.70;99.90
7518;DHT22;3800;48.922;9.444;2024-03-29T02:47:38;8.70;99.90
7518;DHT22;3800;48.922;9.444;2024-03-29T02:50:08;8.80;99.90
7518;DHT22;3800;48.922;9.444;2024-03-29T02:52:36;8.80;99.90
7518;DHT22;3800;48.922;9.444;2024-03-29T02:55:04;8.90;99.90
7518;DHT22;3800;48.922;9.444;2024-03-29T02:57:33;8.90;99.90
7518;DHT22;3800;48.922;9.444;2024-03-29T03:00:02;9.00;99.90
7518;DHT22;3800;48.922;9.444;2024-03-29T03:02:31;9.00;99.90
7518;DHT22;3800;48.922;9.444;2024-03-29T03:05:00;9.00;99.90
7518;DHT22;3800;48.922;9.444;2024-03-29T03:07:30;9.10;99.90
7518;DHT22;3800;48.922;9.444;2024-03-29T03:10:03;9.10;99.90
7518;DHT22;3800;48.922;9.444;2024-03-29T03:12:37;9.10;99.90
7518;DHT22;3800;48.922;9.444;2024-03-29T03:15:06;9.10;99.90
7518;DHT22;3800;48.922;9.444;2024-03-29T03:17:35;9.00;99.90
7518;DHT22;3800;48.922;9.444;2024-03-29T03:20:04;9.00;99.90
7518;DHT22;3800;48.922;9.444;2024-03-29T03:22:32;9.00;99.90
7518;DHT22;3800;48.922;9.444;2024-03-29T03:25:02;9.00;99.90
7518;DHT22;3800;48.922;9.444;2024-03-29T03:27:31;9.10;99.90
7518;DHT22;3800;48.922;9.444;2024-03-29T03:29:59;9.10;99.90
7518;DHT22;3800;48.922;9.444;2024-03-29T03:32:28;9.10;99.90
7518;DHT22;3800;48.922;9.444;2024-03-29T03:34:56;9.20;99.90
7518;DHT22;3800;48.922;9.444;2024-03-29T03:37:25;9.30;99.80
7518;DHT22;3800;48.922;9.444;2024-03-29T03:39:54;9.30;99.60
7518;DHT22;3800;48.922;9.444;2024-03-29T03:42:22;9.40;99.90
7518;DHT22;3800;48.922;9.444;2024-03-29T03:44:50;9.40;99.90
7518;DHT22;3800;48.922;9.444;2024-03-29T03:47:18;9.40;99.60
7518;DHT22;3800;48.922;9.444;2024-03-29T03:49:47;9.40;99.80
7518;DHT22;3800;48.922;9.444;2024-03-29T03:52:15;9.40;99.60
7518;DHT22;3800;48.922;9.444;2024-03-29T03:54:44;9.40;99.70
7518;DHT22;3800;48.922;9.444;2024-03-29T03:57:13;9.40;99.80
7518;DHT22;3800;48.922;9.444;2024-03-29T03:59:42;9.50;98.90
7518;DHT22;3800;48.922;9.444;2024-03-29T04:02:11;9.40;98.90
7518;DHT22;3800;48.922;9.444;2024-03-29T04:04:39;9.50;98.90
7518;DHT22;3800;48.922;9.444;2024-03-29T04:07:08;9.50;98.50
7518;DHT22;3800;48.922;9.444;2024-03-29T04:09:36;9.60;97.80
7518;DHT22;3800;48.922;9.444;2024-03-29T04:12:04;9.60;97.50
7518;DHT22;3800;48.922;9.444;2024-03-29T04:14:33;9.60;98.00
7518;DHT22;3800;48.922;9.444;2024-03-29T04:17:01;9.70;97.20
7518;DHT22;3800;48.922;9.444;2024-03-29T04:19:30;9.60;97.90
7518;DHT22;3800;48.922;9.444;2024-03-29T04:22:00;9.60;98.30
7518;DHT22;3800;48.922;9.444;2024-03-29T04:24:28;9.60;98.20
7518;DHT22;3800;48.922;9.444;2024-03-29T04:26:57;9.60;98.70
7518;DHT22;3800;48.922;9.444;2024-03-29T04:29:25;9.60;99.60
7518;DHT22;3800;48.922;9.444;2024-03-29T04:31:54;9.50;99.30
7518;DHT22;3800;48.922;9.444;2024-03-29T04:34:23;9.50;98.20
7518;DHT22;3800;48.922;9.444;2024-03-29T04:36:52;9.50;99.00
7518;DHT22;3800;48.922;9.444;2024-03-29T04:39:20;9.50;99.00
7518;DHT22;3800;48.922;9.444;2024-03-29T04:41:48;9.50;99.30
7518;DHT22;3800;48.922;9.444;2024-03-29T04:44:23;9.40;99.20
7518;DHT22;3800;48.922;9.444;2024-03-29T04:46:50;9.40;98.80
7518;DHT22;3800;48.922;9.444;2024-03-29T04:49:19;9.40;98.40
7518;DHT22;3800;48.922;9.444;2024-03-29T04:51:49;9.50;97.90
7518;DHT22;3800;48.922;9.444;2024-03-29T04:54:18;9.50;98.60
7518;DHT22;3800;48.922;9.444;2024-03-29T04:56:47;9.50;98.60
7518;DHT22;3800;48.922;9.444;2024-03-29T04:59:15;9.50;99.00
7518;DHT22;3800;48.922;9.444;2024-03-29T05:01:44;9.50;99.30
7518;DHT22;3800;48.922;9.444;2024-03-29T05:04:13;9.50;98.90
7518;DHT22;3800;48.922;9.444;2024-03-29T05:06:42;9.50;98.80
7518;DHT22;3800;48.922;9.444;2024-03-29T05:09:10;9.50;98.80
7518;DHT22;3800;48.922;9.444;2024-03-29T05:11:38;9.50;99.40
7518;DHT22;3800;48.922;9.444;2024-03-29T05:14:07;9.50;98.60
7518;DHT22;3800;48.922;9.444;2024-03-29T05:16:35;9.50;98.40
7518;DHT22;3800;48.922;9.444;2024-03-29T05:19:04;9.50;98.10
7518;DHT22;3800;48.922;9.444;2024-03-29T05:21:33;9.50;98.10
7518;DHT22;3800;48.922;9.444;2024-03-29T05:24:01;9.60;98.20
7518;DHT22;3800;48.922;9.444;2024-03-29T05:26:29;9.60;98.00
7518;DHT22;3800;48.922;9.444;2024-03-29T05:28:58;9.60;98.20
7518;DHT22;3800;48.922;9.444;2024-03-29T05:31:27;9.60;97.90
7518;DHT22;3800;48.922;9.444;2024-03-29T05:33:55;9.70;97.60
7518;DHT22;3800;48.922;9.444;2024-03-29T05:36:24;9.70;98.30
7518;DHT22;3800;48.922;9.444;2024-03-29T05:38:53;9.70;98.40
7518;DHT22;3800;48.922;9.444;2024-03-29T05:41:21;9.70;98.70
7518;DHT22;3800;48.922;9.444;2024-03-29T05:43:50;9.70;99.10
7518;DHT22;3800;48.922;9.444;2024-03-29T05:46:18;9.70;99.90
7518;DHT22;3800;48.922;9.444;2024-03-29T05:48:47;9.70;99.90
7518;DHT22;3800;48.922;9.444;2024-03-29T05:51:16;9.60;99.90
7518;DHT22;3800;48.922;9.444;2024-03-29T05:53:44;9.60;99.90
7518;DHT22;3800;48.922;9.444;2024-03-29T05:56:13;9.60;99.90
7518;DHT22;3800;48.922;9.444;2024-03-29T05:58:41;9.60;99.90
7518;DHT22;3800;48.922;9.444;2024-03-29T06:01:09;9.60;99.90
7518;DHT22;3800;48.922;9.444;2024-03-29T06:03:38;9.60;99.90
7518;DHT22;3800;48.922;9.444;2024-03-29T06:06:06;9.60;99.90
7518;DHT22;3800;48.922;9.444;2024-03-29T06:08:34;9.60;99.90
7518;DHT22;3800;48.922;9.444;2024-03-29T06:11:03;9.60;99.90
7518;DHT22;3800;48.922;9.444;2024-03-29T06:13:32;9.60;99.90
7518;DHT22;3800;48.922;9.444;2024-03-29T06:16:07;9.60;99.90
7518;DHT22;3800;48.922;9.444;2024-03-29T06:18:40;9.60;99.90
7518;DHT22;3800;48.922;9.444;2024-03-29T06:21:09;9.60;99.90
7518;DHT22;3800;48.922;9.444;2024-03-29T06:23:37;9.60;99.90
7518;DHT22;3800;48.922;9.444;2024-03-29T06:26:05;9.60;99.90
7518;DHT22;3800;48.922;9.444;2024-03-29T06:28:33;9.60;99.90
7518;DHT22;3800;48.922;9.444;2024-03-29T06:31:03;9.60;99.90
7518;DHT22;3800;48.922;9.444;2024-03-29T06:33:32;9.60;99.90
7518;DHT22;3800;48.922;9.444;2024-03-29T06:36:01;9.60;99.90
7518;DHT22;3800;48.922;9.444;2024-03-29T06:38:29;9.60;99.90
7518;DHT22;3800;48.922;9.444;2024-03-29T06:40:57;9.70;99.90
7518;DHT22;3800;48.922;9.444;2024-03-29T06:43:25;9.70;99.90
7518;DHT22;3800;48.922;9.444;2024-03-29T06:45:54;9.80;99.90
7518;DHT22;3800;48.922;9.444;2024-03-29T06:48:22;9.80;99.90
7518;DHT22;3800;48.922;9.444;2024-03-29T06:50:52;10.00;99.50
7518;DHT22;3800;48.922;9.444;2024-03-29T06:53:20;10.00;99.50
7518;DHT22;3800;48.922;9.444;2024-03-29T06:55:49;10.00;99.30
7518;DHT22;3800;48.922;9.444;2024-03-29T06:58:18;10.10;99.90
7518;DHT22;3800;48.922;9.444;2024-03-29T07:00:46;10.10;99.90
7518;DHT22;3800;48.922;9.444;2024-03-29T07:03:14;10.10;99.90
7518;DHT22;3800;48.922;9.444;2024-03-29T07:05:42;10.10;99.90
7518;DHT22;3800;48.922;9.444;2024-03-29T07:08:11;10.20;99.90
7518;DHT22;3800;48.922;9.444;2024-03-29T07:10:39;10.20;99.90
7518;DHT22;3800;48.922;9.444;2024-03-29T07:13:07;10.30;99.90
7518;DHT22;3800;48.922;9.444;2024-03-29T07:15:36;10.30;99.90
7518;DHT22;3800;48.922;9.444;2024-03-29T07:18:04;10.30;99.90
7518;DHT22;3800;48.922;9.444;2024-03-29T07:20:33;10.30;99.90
7518;DHT22;3800;48.922;9.444;2024-03-29T07:23:01;10.40;99.90
7518;DHT22;3800;48.922;9.444;2024-03-29T07:25:30;10.50;99.90
7518;DHT22;3800;48.922;9.444;2024-03-29T07:27:59;10.50;99.90
7518;DHT22;3800;48.922;9.444;2024-03-29T07:30:28;10.50;99.90
7518;DHT22;3800;48.922;9.444;2024-03-29T07:32:56;10.50;99.90
7518;DHT22;3800;48.922;9.444;2024-03-29T07:35:25;10.50;99.90
7518;DHT22;3800;48.922;9.444;2024-03-29T07:37:54;10.40;99.90
7518;DHT22;3800;48.922;9.444;2024-03-29T07:40:22;10.40;99.90
7518;DHT22;3800;48.922;9.444;2024-03-29T07:42:50;10.40;99.90
7518;DHT22;3800;48.922;9.444;2024-03-29T07:45:18;10.40;99.90
7518;DHT22;3800;48.922;9.444;2024-03-29T07:47:47;10.30;99.90
7518;DHT22;3800;48.922;9.444;2024-03-29T07:50:15;10.30;99.90
7518;DHT22;3800;48.922;9.444;2024-03-29T07:52:45;10.20;99.90
7518;DHT22;3800;48.922;9.444;2024-03-29T07:55:13;10.20;99.90
7518;DHT22;3800;48.922;9.444;2024-03-29T07:57:42;10.10;99.90
7518;DHT22;3800;48.922;9.444;2024-03-29T08:00:10;10.00;99.90
7518;DHT22;3800;48.922;9.444;2024-03-29T08:02:39;10.00;99.90
7518;DHT22;3800;48.922;9.444;2024-03-29T08:05:07;9.90;99.90
7518;DHT22;3800;48.922;9.444;2024-03-29T08:07:36;9.80;99.90
7518;DHT22;3800;48.922;9.444;2024-03-29T08:10:05;9.60;99.90
7518;DHT22;3800;48.922;9.444;2024-03-29T08:12:35;9.40;99.90
7518;DHT22;3800;48.922;9.444;2024-03-29T08:15:05;9.40;99.90
7518;DHT22;3800;48.922;9.444;2024-03-29T08:17:33;9.30;99.90
7518;DHT22;3800;48.922;9.444;2024-03-29T08:20:02;9.20;99.90
7518;DHT22;3800;48.922;9.444;2024-03-29T08:22:30;9.10;99.90
7518;DHT22;3800;48.922;9.444;2024-03-29T08:25:00;9.00;99.90
7518;DHT22;3800;48.922;9.444;2024-03-29T08:27:29;9.00;99.90
7518;DHT22;3800;48.922;9.444;2024-03-29T08:29:57;9.00;99.90
7518;DHT22;3800;48.922;9.444;2024-03-29T08:32:25;9.00;99.90
7518;DHT22;3800;48.922;9.444;2024-03-29T08:34:54;9.00;99.90
7518;DHT22;3800;48.922;9.444;2024-03-29T08:37:24;9.00;99.90
7518;DHT22;3800;48.922;9.444;2024-03-29T08:39:52;9.00;99.90
7518;DHT22;3800;48.922;9.444;2024-03-29T08:42:22;9.00;99.90
7518;DHT22;3800;48.922;9.444;2024-03-29T08:44:50;9.10;99.90
7518;DHT22;3800;48.922;9.444;2024-03-29T08:47:18;9.10;99.90
7518;DHT22;3800;48.922;9.444;2024-03-29T08:49:47;9.10;99.90
7518;DHT22;3800;48.922;9.444;2024-03-29T08:52:15;9.10;99.90
7518;DHT22;3800;48.922;9.444;2024-03-29T08:54:44;9.10;99.90
7518;DHT22;3800;48.922;9.444;2024-03-29T08:57:12;9.10;99.90
7518;DHT22;3800;48.922;9.444;2024-03-29T08:59:40;9.00;99.90
7518;DHT22;3800;48.922;9.444;2024-03-29T09:02:08;9.00;99.90
7518;DHT22;3800;48.922;9.444;2024-03-29T09:04:37;9.00;99.90
7518;DHT22;3800;48.922;9.444;2024-03-29T09:07:06;9.00;99.90
7518;DHT22;3800;48.922;9.444;2024-03-29T09:09:34;9.00;99.90
7518;DHT22;3800;48.922;9.444;2024-03-29T09:12:02;8.90;99.90
7518;DHT22;3800;48.922;9.444;2024-03-29T09:14:32;9.00;99.90
7518;DHT22;3800;48.922;9.444;2024-03-29T09:17:00;9.00;99.90
7518;DHT22;3800;48.922;9.444;2024-03-29T09:19:29;9.00;99.90
7518;DHT22;3800;48.922;9.444;2024-03-29T09:21:59;9.00;99.90
7518;DHT22;3800;48.922;9.444;2024-03-29T09:24:28;9.10;99.90
7518;DHT22;3800;48.922;9.444;2024-03-29T09:26:57;9.10;99.90
7518;DHT22;3800;48.922;9.444;2024-03-29T09:29:25;9.10;99.90
7518;DHT22;3800;48.922;9.444;2024-03-29T09:31:53;9.00;99.90
7518;DHT22;3800;48.922;9.444;2024-03-29T09:34:22;9.00;99.90
7518;DHT22;3800;48.922;9.444;2024-03-29T09:36:51;9.00;99.90
7518;DHT22;3800;48.922;9.444;2024-03-29T09:39:19;9.10;99.90
7518;DHT22;3800;48.922;9.444;2024-03-29T09:41:48;9.10;99.90
7518;DHT22;3800;48.922;9.444;2024-03-29T09:44:16;9.20;99.90
7518;DHT22;3800;48.922;9.444;2024-03-29T09:46:44;9.20;99.90
7518;DHT22;3800;48.922;9.444;2024-03-29T09:49:13;9.20;99.90
7518;DHT22;3800;48.922;9.444;2024-03-29T09:51:42;9.20;99.90
7518;DHT22;3800;48.922;9.444;2024-03-29T09:54:09;9.20;99.90
7518;DHT22;3800;48.922;9.444;2024-03-29T09:56:38;9.30;99.90
7518;DHT22;3800;48.922;9.444;2024-03-29T09:59:06;9.30;99.90
7518;DHT22;3800;48.922;9.444;2024-03-29T10:01:35;9.30;99.90
7518;DHT22;3800;48.922;9.444;2024-03-29T10:04:03;9.30;99.90
7518;DHT22;3800;48.922;9.444;2024-03-29T10:06:31;9.30;99.90
7518;DHT22;3800;48.922;9.444;2024-03-29T10:09:00;9.40;99.90
7518;DHT22;3800;48.922;9.444;2024-03-29T10:11:29;9.40;99.90
7518;DHT22;3800;48.922;9.444;2024-03-29T10:13:57;9.40;99.90
7518;DHT22;3800;48.922;9.444;2024-03-29T10:16:26;9.50;99.90
7518;DHT22;3800;48.922;9.444;2024-03-29T10:18:58;9.50;99.90
7518;DHT22;3800;48.922;9.444;2024-03-29T10:21:25;9.50;99.90
7518;DHT22;3800;48.922;9.444;2024-03-29T10:23:54;9.60;99.90
7518;DHT22;3800;48.922;9.444;2024-03-29T10:26:22;9.60;99.90
7518;DHT22;3800;48.922;9.444;2024-03-29T10:28:50;9.60;99.90
7518;DHT22;3800;48.922;9.444;2024-03-29T10:31:19;9.70;99.90
7518;DHT22;3800;48.922;9.444;2024-03-29T10:33:47;9.80;99.90
7518;DHT22;3800;48.922;9.444;2024-03-29T10:36:16;9.80;99.90
7518;DHT22;3800;48.922;9.444;2024-03-29T10:38:44;10.00;99.90
7518;DHT22;3800;48.922;9.444;2024-03-29T10:41:12;10.10;99.90
7518;DHT22;3800;48.922;9.444;2024-03-29T10:43:40;10.10;99.90
7518;DHT22;3800;48.922;9.444;2024-03-29T10:46:08;10.20;99.90
7518;DHT22;3800;48.922;9.444;2024-03-29T10:48:37;10.30;99.90
7518;DHT22;3800;48.922;9.444;2024-03-29T10:51:05;10.40;99.90
7518;DHT22;3800;48.922;9.444;2024-03-29T10:53:33;10.40;99.90
7518;DHT22;3800;48.922;9.444;2024-03-29T10:56:03;10.40;99.90
7518;DHT22;3800;48.922;9.444;2024-03-29T10:58:33;10.50;99.90
7518;DHT22;3800;48.922;9.444;2024-03-29T11:01:00;10.50;99.90
7518;DHT22;3800;48.922;9.444;2024-03-29T11:03:44;10.50;99.90
7518;DHT22;3800;48.922;9.444;2024-03-29T11:06:13;10.60;99.90
7518;DHT22;3800;48.922;9.444;2024-03-29T11:08:41;10.60;99.90
7518;DHT22;3800;48.922;9.444;2024-03-29T11:11:09;10.70;99.90
7518;DHT22;3800;48.922;9.444;2024-03-29T11:13:40;10.80;99.90
7518;DHT22;3800;48.922;9.444;2024-03-29T11:16:07;10.90;99.90
7518;DHT22;3800;48.922;9.444;2024-03-29T11:18:36;11.00;99.90
7518;DHT22;3800;48.922;9.444;2024-03-29T11:21:04;11.10;99.90
7518;DHT22;3800;48.922;9.444;2024-03-29T11:23:32;11.20;99.90
7518;DHT22;3800;48.922;9.444;2024-03-29T11:26:00;11.30;99.90
7518;DHT22;3800;48.922;9.444;2024-03-29T11:28:31;11.30;99.90
7518;DHT22;3800;48.922;9.444;2024-03-29T11:31:00;11.50;99.90
7518;DHT22;3800;48.922;9.444;2024-03-29T11:36:21;11.70;99.90
7518;DHT22;3800;48.922;9.444;2024-03-29T11:38:52;11.90;99.90
7518;DHT22;3800;48.922;9.444;2024-03-29T11:41:22;11.90;99.90
7518;DHT22;3800;48.922;9.444;2024-03-29T11:43:51;12.00;99.90
7518;DHT22;3800;48.922;9.444;2024-03-29T11:46:21;12.10;99.90
7518;DHT22;3800;48.922;9.444;2024-03-29T11:48:49;12.30;99.90
7518;DHT22;3800;48.922;9.444;2024-03-29T11:51:18;12.40;99.90
7518;DHT22;3800;48.922;9.444;2024-03-29T11:53:46;12.50;99.90
7518;DHT22;3800;48.922;9.444;2024-03-29T11:56:14;12.50;99.90
7518;DHT22;3800;48.922;9.444;2024-03-29T11:58:42;12.50;99.90
7518;DHT22;3800;48.922;9.444;2024-03-29T12:01:11;12.60;99.90
7518;DHT22;3800;48.922;9.444;2024-03-29T12:03:40;12.70;99.90
7518;DHT22;3800;48.922;9.444;2024-03-29T12:06:08;12.80;99.90
7518;DHT22;3800;48.922;9.444;2024-03-29T12:08:39;12.80;99.90
7518;DHT22;3800;48.922;9.444;2024-03-29T12:11:08;12.90;99.90
7518;DHT22;3800;48.922;9.444;2024-03-29T12:13:37;12.90;99.90
7518;DHT22;3800;48.922;9.444;2024-03-29T12:16:05;13.00;99.90
7518;DHT22;3800;48.922;9.444;2024-03-29T12:18:33;13.00;99.90
7518;DHT22;3800;48.922;9.444;2024-03-29T12:21:03;13.00;99.90
7518;DHT22;3800;48.922;9.444;2024-03-29T12:23:31;13.00;99.90
7518;DHT22;3800;48.922;9.444;2024-03-29T12:26:00;13.10;99.90
7518;DHT22;3800;48.922;9.444;2024-03-29T12:28:29;13.10;99.90
7518;DHT22;3800;48.922;9.444;2024-03-29T12:30:58;13.30;99.90
7518;DHT22;3800;48.922;9.444;2024-03-29T12:33:28;13.20;99.90
7518;DHT22;3800;48.922;9.444;2024-03-29T12:35:57;13.40;99.90
7518;DHT22;3800;48.922;9.444;2024-03-29T12:38:25;13.40;99.90
7518;DHT22;3800;48.922;9.444;2024-03-29T12:40:54;13.50;99.90
7518;DHT22;3800;48.922;9.444;2024-03-29T12:43:22;13.60;99.90
7518;DHT22;3800;48.922;9.444;2024-03-29T12:45:51;13.70;99.90
7518;DHT22;3800;48.922;9.444;2024-03-29T12:48:20;13.70;99.90
7518;DHT22;3800;48.922;9.444;2024-03-29T12:50:48;13.80;99.90
7518;DHT22;3800;48.922;9.444;2024-03-29T12:53:17;13.70;99.90
7518;DHT22;3800;48.922;9.444;2024-03-29T12:55:46;13.70;99.90
7518;DHT22;3800;48.922;9.444;2024-03-29T12:58:15;13.80;99.90
7518;DHT22;3800;48.922;9.444;2024-03-29T13:00:43;13.80;99.90
7518;DHT22;3800;48.922;9.444;2024-03-29T13:03:11;13.80;99.90
7518;DHT22;3800;48.922;9.444;2024-03-29T13:05:40;13.80;99.90
7518;DHT22;3800;48.922;9.444;2024-03-29T13:08:09;13.80;99.90
7518;DHT22;3800;48.922;9.444;2024-03-29T13:10:38;13.70;99.90
7518;DHT22;3800;48.922;9.444;2024-03-29T13:13:07;13.80;99.90
7518;DHT22;3800;48.922;9.444;2024-03-29T13:15:36;13.80;99.90
7518;DHT22;3800;48.922;9.444;2024-03-29T13:18:06;13.80;99.90
7518;DHT22;3800;48.922;9.444;2024-03-29T13:20:36;13.80;99.90
7518;DHT22;3800;48.922;9.444;2024-03-29T13:23:05;13.80;99.90
7518;DHT22;3800;48.922;9.444;2024-03-29T13:25:33;13.70;99.90
7518;DHT22;3800;48.922;9.444;2024-03-29T13:28:01;13.80;99.90
7518;DHT22;3800;48.922;9.444;2024-03-29T13:30:30;13.80;99.90
7518;DHT22;3800;48.922;9.444;2024-03-29T13:32:58;13.90;99.90
7518;DHT22;3800;48.922;9.444;2024-03-29T13:35:27;14.00;99.90
7518;DHT22;3800;48.922;9.444;2024-03-29T13:37:56;14.10;99.90
7518;DHT22;3800;48.922;9.444;2024-03-29T13:40:25;14.10;99.90
7518;DHT22;3800;48.922;9.444;2024-03-29T13:42:53;14.10;99.90
7518;DHT22;3800;48.922;9.444;2024-03-29T13:45:21;14.00;99.90
7518;DHT22;3800;48.922;9.444;2024-03-29T13:47:49;14.10;99.90
7518;DHT22;3800;48.922;9.444;2024-03-29T13:50:20;14.20;99.90
7518;DHT22;3800;48.922;9.444;2024-03-29T13:52:48;14.10;99.90
7518;DHT22;3800;48.922;9.444;2024-03-29T13:55:16;14.20;99.90
7518;DHT22;3800;48.922;9.444;2024-03-29T13:57:45;14.20;99.90
7518;DHT22;3800;48.922;9.444;2024-03-29T14:00:13;14.20;99.90
7518;DHT22;3800;48.922;9.444;2024-03-29T14:02:42;14.20;99.90
7518;DHT22;3800;48.922;9.444;2024-03-29T14:05:11;14.30;99.90
7518;DHT22;3800;48.922;9.444;2024-03-29T14:07:39;14.30;99.90
7518;DHT22;3800;48.922;9.444;2024-03-29T14:10:07;14.40;99.90
7518;DHT22;3800;48.922;9.444;2024-03-29T14:12:36;14.50;99.90
7518;DHT22;3800;48.922;9.444;2024-03-29T14:15:05;14.50;99.90
7518;DHT22;3800;48.922;9.444;2024-03-29T14:17:34;14.50;99.90
7518;DHT22;3800;48.922;9.444;2024-03-29T14:20:02;14.60;99.90
7518;DHT22;3800;48.922;9.444;2024-03-29T14:22:32;14.60;99.90
7518;DHT22;3800;48.922;9.444;2024-03-29T14:25:00;14.60;99.90
7518;DHT22;3800;48.922;9.444;2024-03-29T14:27:29;14.70;99.90
7518;DHT22;3800;48.922;9.444;2024-03-29T14:29:58;14.80;99.90
7518;DHT22;3800;48.922;9.444;2024-03-29T14:32:26;14.90;99.90
7518;DHT22;3800;48.922;9.444;2024-03-29T14:34:54;14.90;99.90
7518;DHT22;3800;48.922;9.444;2024-03-29T14:37:23;14.90;99.90
7518;DHT22;3800;48.922;9.444;2024-03-29T14:39:52;15.00;99.90
7518;DHT22;3800;48.922;9.444;2024-03-29T14:42:20;15.10;99.90
7518;DHT22;3800;48.922;9.444;2024-03-29T14:44:48;15.10;99.90
7518;DHT22;3800;48.922;9.444;2024-03-29T14:47:17;15.10;99.90
7518;DHT22;3800;48.922;9.444;2024-03-29T14:49:46;15.20;99.90
7518;DHT22;3800;48.922;9.444;2024-03-29T14:52:15;15.20;99.90
7518;DHT22;3800;48.922;9.444;2024-03-29T14:54:43;15.30;99.90
7518;DHT22;3800;48.922;9.444;2024-03-29T14:57:11;15.30;99.90
7518;DHT22;3800;48.922;9.444;2024-03-29T14:59:40;15.40;99.90
7518;DHT22;3800;48.922;9.444;2024-03-29T15:02:09;15.40;99.90
7518;DHT22;3800;48.922;9.444;2024-03-29T15:04:37;15.40;99.90
7518;DHT22;3800;48.922;9.444;2024-03-29T15:07:06;15.50;99.90
7518;DHT22;3800;48.922;9.444;2024-03-29T15:09:34;15.40;99.90
7518;DHT22;3800;48.922;9.444;2024-03-29T15:12:03;15.40;99.90
7518;DHT22;3800;48.922;9.444;2024-03-29T15:14:32;15.40;99.90
7518;DHT22;3800;48.922;9.444;2024-03-29T15:17:01;15.30;99.90
7518;DHT22;3800;48.922;9.444;2024-03-29T15:19:29;15.20;99.90
7518;DHT22;3800;48.922;9.444;2024-03-29T15:21:57;15.20;99.90
7518;DHT22;3800;48.922;9.444;2024-03-29T15:24:25;15.20;99.90
7518;DHT22;3800;48.922;9.444;2024-03-29T15:26:54;15.20;99.90
7518;DHT22;3800;48.922;9.444;2024-03-29T15:29:22;15.20;99.90
7518;DHT22;3800;48.922;9.444;2024-03-29T15:31:50;15.20;99.90
7518;DHT22;3800;48.922;9.444;2024-03-29T15:34:19;15.20;99.90
7518;DHT22;3800;48.922;9.444;2024-03-29T15:36:48;15.20;99.90
7518;DHT22;3800;48.922;9.444;2024-03-29T15:39:16;15.20;99.90
7518;DHT22;3800;48.922;9.444;2024-03-29T15:41:44;15.20;99.90
7518;DHT22;3800;48.922;9.444;2024-03-29T15:44:13;15.20;99.90
7518;DHT22;3800;48.922;9.444;2024-03-29T15:46:42;15.20;99.90
7518;DHT22;3800;48.922;9.444;2024-03-29T15:49:10;15.10;99.90
7518;DHT22;3800;48.922;9.444;2024-03-29T15:51:38;15.10;99.90
7518;DHT22;3800;48.922;9.444;2024-03-29T15:54:07;15.00;99.90
7518;DHT22;3800;48.922;9.444;2024-03-29T15:56:36;15.10;99.90
7518;DHT22;3800;48.922;9.444;2024-03-29T15:59:05;15.00;99.90
7518;DHT22;3800;48.922;9.444;2024-03-29T16:01:34;15.00;99.90
7518;DHT22;3800;48.922;9.444;2024-03-29T16:04:03;14.90;99.90
7518;DHT22;3800;48.922;9.444;2024-03-29T16:06:31;14.90;99.90
7518;DHT22;3800;48.922;9.444;2024-03-29T16:09:00;14.80;99.90
7518;DHT22;3800;48.922;9.444;2024-03-29T16:11:37;14.80;99.90
7518;DHT22;3800;48.922;9.444;2024-03-29T16:14:06;14.80;99.90
7518;DHT22;3800;48.922;9.444;2024-03-29T16:16:35;14.80;99.90
7518;DHT22;3800;48.922;9.444;2024-03-29T16:19:03;14.70;99.90
7518;DHT22;3800;48.922;9.444;2024-03-29T16:21:32;14.70;99.90
7518;DHT22;3800;48.922;9.444;2024-03-29T16:24:01;14.70;99.90